CST,Max TemperatureF,Mean TemperatureF,Min TemperatureF,Max Dew PointF,MeanDew PointF,Min DewpointF,Max Humidity, Mean Humidity, Min Humidity, Max Sea Level PressureIn, Mean Sea Level PressureIn, Min Sea Level PressureIn, Max VisibilityMiles, Mean VisibilityMiles, Min VisibilityMiles, Max Wind SpeedMPH, Mean Wind SpeedMPH, Max Gust SpeedMPH,PrecipitationIn, CloudCover, Events, WindDirDegrees
2013-2-1,43,36,30,29,21,15,73,58,43,30.53,30.41,30.30,10,10,10,9,5,20,0.00,0,,70
2013-2-2,60,46,33,41,34,24,93,67,42,30.28,30.23,30.18,10,10,10,10,4,17,0.00,3,Rain,224
2013-2-3,63,50,37,34,30,24,89,53,23,30.27,30.20,30.11,10,10,10,10,5,18,0.00,0,Rain,283
2013-2-4,57,50,44,49,39,29,96,69,42,30.09,29.99,29.91,10,10,7,12,5,17,0.11,5,Rain,165
2013-2-5,59,50,42,52,48,41,100,90,75,30.07,30.01,29.93,10,5,0,6,1,,0.01,7,Fog-Rain,119
2013-2-6,59,47,35,51,43,34,100,91,75,30.18,30.09,30.01,10,4,0,9,1,,0.00,5,Fog,76
2013-2-7,68,60,51,57,54,48,100,85,63,29.99,29.94,29.87,10,9,2,8,1,,0.03,8,Rain,201
2013-2-8,57,48,37,54,44,33,94,77,53,30.28,30.13,29.94,10,10,6,16,8,23,0.02,4,Rain,19
2013-2-9,54,42,30,42,36,30,96,71,50,30.28,30.16,30.00,10,8,3,9,6,,0.00,3,,84
2013-2-10,66,60,55,59,56,44,97,87,62,30.00,29.87,29.76,10,8,2,13,7,18,1.31,6,Rain-Thunderstorm,170
2013-2-11,57,52,48,44,38,32,83,60,39,30.17,30.12,30.01,10,10,10,9,3,,0.00,4,,24
2013-2-12,48,46,44,45,42,38,93,88,66,30.14,29.92,29.83,10,7,2,18,7,25,0.44,7,Rain,55
2013-2-13,52,44,37,43,38,35,96,79,59,30.08,29.99,29.84,10,10,4,12,6,,0.00,6,Rain,293
2013-2-14,62,50,37,39,36,32,89,63,32,30.12,30.07,30.04,10,10,10,10,5,16,0.00,0,Rain,243
2013-2-15,55,46,37,37,31,26,74,53,38,30.27,30.19,30.08,10,10,10,10,5,20,0.00,2,,341
2013-2-16,46,39,32,24,19,14,66,48,29,30.32,30.28,30.26,10,10,10,13,5,18,0.00,1,,291
2013-2-17,62,47,32,42,30,23,70,51,31,30.27,30.17,30.08,10,10,10,13,7,23,0.00,2,,174
2013-2-18,64,56,48,56,50,40,94,78,56,30.09,29.91,29.78,10,8,2,23,12,38,0.62,6,Rain-Thunderstorm,207
2013-2-19,57,46,35,40,31,21,89,62,27,30.30,30.22,30.04,10,10,10,9,5,,0.00,0,,326
2013-2-20,42,39,36,34,25,20,89,60,45,30.35,30.22,30.11,10,10,6,15,7,23,0.02,6,Rain,61
2013-2-21,51,44,37,48,37,26,97,78,52,30.09,29.85,29.68,10,9,4,18,10,26,0.18,8,Rain-Thunderstorm,72
2013-2-22,50,44,37,41,38,33,100,88,71,30.11,30.03,29.91,10,5,0,6,1,,0.00,7,Fog,335
2013-2-23,52,43,34,35,32,28,89,70,48,30.08,30.02,29.97,10,10,10,12,4,,0.00,0,Rain,43
2013-2-24,61,47,33,38,34,30,92,64,38,30.07,29.97,29.82,10,10,10,10,4,,0.00,0,Rain,67
2013-2-25,61,54,46,59,50,38,100,84,66,29.80,29.51,29.36,10,8,2,16,8,26,0.96,8,Rain-Thunderstorm,98
2013-2-26,48,44,37,46,35,32,93,71,59,29.91,29.65,29.44,10,10,10,20,11,34,0.00,6,,258
2013-2-27,57,44,30,35,32,28,92,66,38,30.06,29.98,29.91,10,10,4,16,5,23,0.00,1,,280
2013-2-28,55,42,30,33,28,24,86,60,29,30.14,30.10,30.06,10,10,10,12,6,18,0.00,0,Rain,293